createdAt,value
2018-07-13T00:02:13.119Z,14.23
2018-07-13T00:04:41.267Z,14.40
2018-07-13T00:07:09.363Z,13.87
2018-07-13T00:09:37.499Z,14.73
2018-07-13T00:12:05.632Z,14.43
2018-07-13T00:14:33.767Z,14.47
2018-07-13T00:17:01.884Z,13.37
2018-07-13T00:19:30.017Z,14.13
2018-07-13T00:21:57.962Z,14.43
2018-07-13T00:24:26.088Z,13.40
2018-07-13T00:26:54.205Z,13.33
2018-07-13T00:29:22.368Z,12.73
2018-07-13T00:31:50.491Z,13.47
2018-07-13T00:34:18.615Z,13.00
2018-07-13T00:36:46.740Z,12.93
2018-07-13T00:39:14.858Z,12.17
2018-07-13T00:41:42.980Z,12.77
2018-07-13T00:44:11.120Z,11.97
2018-07-13T00:46:39.256Z,11.87
2018-07-13T00:49:07.383Z,10.83
2018-07-13T00:51:35.271Z,10.67
2018-07-13T00:54:03.414Z,10.27
2018-07-13T00:56:31.398Z,11.27
2018-07-13T00:58:59.300Z,10.77
2018-07-13T01:01:27.444Z,10.67
2018-07-13T01:03:55.331Z,10.63
2018-07-13T01:06:23.479Z,10.33
2018-07-13T01:08:51.379Z,10.47
2018-07-13T01:11:19.531Z,10.23
2018-07-13T01:13:47.474Z,11.27
2018-07-13T01:16:15.439Z,10.70
2018-07-13T01:18:43.562Z,10.70
2018-07-13T01:21:11.688Z,10.43
2018-07-13T01:23:39.820Z,10.67
2018-07-13T01:26:07.952Z,10.27
2018-07-13T01:28:36.080Z,10.97
2018-07-13T01:31:04.218Z,10.70
2018-07-13T01:33:32.336Z,10.73
2018-07-13T01:36:00.510Z,10.67
2018-07-13T01:38:38.522Z,9.77
2018-07-13T01:41:06.660Z,9.97
2018-07-13T01:43:34.792Z,9.80
2018-07-13T01:46:02.952Z,10.07
2018-07-13T01:48:31.084Z,10.10
2018-07-13T01:50:59.231Z,10.10
2018-07-13T01:53:27.373Z,10.50
2018-07-13T01:55:55.291Z,10.77
2018-07-13T01:58:23.419Z,10.23
2018-07-13T02:00:51.361Z,9.50
2018-07-13T02:03:19.503Z,10.13
2018-07-13T02:05:47.622Z,9.83
2018-07-13T02:08:15.534Z,9.53
2018-07-13T02:10:43.675Z,9.47
2018-07-13T02:13:11.638Z,9.23
2018-07-13T02:15:39.571Z,9.80
2018-07-13T02:18:07.718Z,9.23
2018-07-13T02:20:35.826Z,9.93
2018-07-13T02:23:03.959Z,8.90
2018-07-13T02:25:32.098Z,8.70
2018-07-13T02:28:00.058Z,9.40
2018-07-13T02:30:28.010Z,8.77
2018-07-13T02:32:56.164Z,9.60
2018-07-13T02:35:24.287Z,8.93
2018-07-13T02:37:52.202Z,8.67
2018-07-13T02:40:20.325Z,8.63
2018-07-13T02:42:48.460Z,9.40
2018-07-13T02:45:16.602Z,8.57
2018-07-13T02:47:44.737Z,8.83
2018-07-13T02:50:12.718Z,8.90
2018-07-13T02:52:40.856Z,8.57
2018-07-13T02:55:08.985Z,9.10
2018-07-13T02:57:37.130Z,8.70
2018-07-13T03:00:05.031Z,8.60
2018-07-13T03:02:33.200Z,9.10
2018-07-13T03:05:01.349Z,8.40
2018-07-13T03:07:29.240Z,8.43
2018-07-13T03:09:57.366Z,8.53
2018-07-13T03:12:25.500Z,8.57
2018-07-13T03:14:53.650Z,8.53
2018-07-13T03:17:21.887Z,8.87
2018-07-13T03:19:50.003Z,8.50
2018-07-13T03:22:18.254Z,8.73
2018-07-13T03:24:46.298Z,8.33
2018-07-13T03:27:14.423Z,8.97
2018-07-13T03:29:42.552Z,8.07
2018-07-13T03:32:10.694Z,8.40
2018-07-13T03:34:38.843Z,9.00
2018-07-13T03:37:06.977Z,8.83
2018-07-13T03:39:34.938Z,8.43
2018-07-13T03:42:03.075Z,8.43
2018-07-13T03:44:31.232Z,8.83
2018-07-13T03:46:59.446Z,8.57
2018-07-13T03:49:27.582Z,8.63
2018-07-13T03:51:55.726Z,8.00
2018-07-13T03:54:23.877Z,8.50
2018-07-13T03:56:51.838Z,8.63
2018-07-13T03:59:19.978Z,7.90
2018-07-13T04:01:48.118Z,8.20
2018-07-13T04:04:16.260Z,8.50
2018-07-13T04:06:44.391Z,8.10
2018-07-13T04:09:12.536Z,7.90
2018-07-13T04:11:40.875Z,8.20
2018-07-13T04:14:09.361Z,7.80
2018-07-13T04:16:37.503Z,7.77
2018-07-13T04:19:05.942Z,7.93
2018-07-13T04:21:34.083Z,7.80
2018-07-13T04:24:02.210Z,7.60
2018-07-13T04:26:30.512Z,7.57
2018-07-13T04:28:58.651Z,7.97
2018-07-13T04:31:26.770Z,8.03
2018-07-13T04:33:54.915Z,8.20
2018-07-13T04:36:23.042Z,8.13
2018-07-13T04:38:51.002Z,7.63
2018-07-13T04:41:19.095Z,7.60
2018-07-13T04:43:47.245Z,7.57
2018-07-13T04:46:15.472Z,8.13
2018-07-13T04:48:43.610Z,7.43
2018-07-13T04:51:11.494Z,7.77
2018-07-13T04:53:39.621Z,8.20
2018-07-13T04:56:07.765Z,7.43
2018-07-13T04:58:36.467Z,7.53
2018-07-13T05:01:04.607Z,8.10
2018-07-13T05:03:32.745Z,7.83
2018-07-13T05:06:00.756Z,8.07
2018-07-13T05:08:28.855Z,8.47
2018-07-13T05:10:57.002Z,8.07
2018-07-13T05:13:25.134Z,7.97
2018-07-13T05:15:53.220Z,8.17
2018-07-13T05:18:21.339Z,7.90
2018-07-13T05:20:49.473Z,7.87
2018-07-13T05:23:17.807Z,8.00
2018-07-13T05:25:45.955Z,8.13
2018-07-13T05:28:14.172Z,8.53
2018-07-13T05:30:42.299Z,8.20
2018-07-13T05:33:10.391Z,8.53
2018-07-13T05:35:38.536Z,9.10
2018-07-13T05:38:06.672Z,8.67
2018-07-13T05:40:34.574Z,8.80
2018-07-13T05:43:02.849Z,9.87
2018-07-13T05:45:31.130Z,8.90
2018-07-13T05:47:59.274Z,10.23
2018-07-13T05:50:27.547Z,9.63
2018-07-13T05:52:55.693Z,9.40
2018-07-13T05:55:24.069Z,10.43
2018-07-13T05:57:52.199Z,11.00
2018-07-13T06:00:20.327Z,9.03
2018-07-13T06:02:48.209Z,10.83
2018-07-13T06:05:16.351Z,11.03
2018-07-13T06:07:44.514Z,10.80
2018-07-13T06:10:12.663Z,10.10
2018-07-13T06:12:40.802Z,11.20
2018-07-13T06:15:08.983Z,11.60
2018-07-13T06:17:37.151Z,11.43
2018-07-13T06:20:06.902Z,11.40
2018-07-13T06:22:35.039Z,12.00
2018-07-13T06:25:03.203Z,13.00
2018-07-13T06:27:31.149Z,12.17
2018-07-13T06:29:59.311Z,12.30
2018-07-13T06:32:27.699Z,13.57
2018-07-13T06:34:56.836Z,12.87
2018-07-13T06:37:24.989Z,11.23
2018-07-13T06:39:52.893Z,11.90
2018-07-13T06:42:21.079Z,13.40
2018-07-13T06:44:49.213Z,13.27
2018-07-13T06:47:17.347Z,14.67
2018-07-13T06:49:45.474Z,13.37
2018-07-13T06:52:14.743Z,14.00
2018-07-13T06:54:42.648Z,13.27
2018-07-13T06:57:18.111Z,12.83
2018-07-13T06:59:46.258Z,14.87
2018-07-13T07:02:25.931Z,13.33
2018-07-13T07:06:00.405Z,13.67
2018-07-13T07:08:28.860Z,12.10
2018-07-13T07:10:57.655Z,12.60
2018-07-13T07:13:27.754Z,14.13
2018-07-13T07:15:55.901Z,13.90
2018-07-13T07:18:24.138Z,14.17
2018-07-13T07:20:52.069Z,12.90
2018-07-13T07:23:20.210Z,13.87
2018-07-13T07:25:48.346Z,14.07
2018-07-13T07:28:16.356Z,14.77
2018-07-13T07:30:44.559Z,13.83
2018-07-13T07:33:12.601Z,13.57
2018-07-13T07:35:40.730Z,14.17
2018-07-13T07:38:08.854Z,14.57
2018-07-13T07:40:36.988Z,13.37
2018-07-13T07:43:05.124Z,14.37
2018-07-13T07:45:33.262Z,14.57
2018-07-13T07:48:01.398Z,15.40
2018-07-13T07:50:29.349Z,15.43
2018-07-13T07:52:57.511Z,13.50
2018-07-13T07:55:25.654Z,15.13
2018-07-13T07:57:53.798Z,15.77
2018-07-13T08:00:21.938Z,14.87
2018-07-13T08:02:50.101Z,15.27
2018-07-13T08:05:18.238Z,15.30
2018-07-13T08:07:46.408Z,16.50
2018-07-13T08:10:14.744Z,15.10
2018-07-13T08:12:42.888Z,15.23
2018-07-13T08:15:11.027Z,16.30
2018-07-13T08:17:39.185Z,14.80
2018-07-13T08:20:07.130Z,14.30
2018-07-13T08:22:39.330Z,14.20
2018-07-13T08:25:08.560Z,14.90
2018-07-13T08:27:39.261Z,15.03
2018-07-13T08:30:11.090Z,15.60
2018-07-13T08:32:39.075Z,14.90
2018-07-13T08:35:07.231Z,13.97
2018-07-13T08:37:35.359Z,14.20
2018-07-13T08:40:03.516Z,16.23
2018-07-13T08:42:31.639Z,15.83
2018-07-13T08:44:59.770Z,14.53
2018-07-13T08:47:27.911Z,14.83
2018-07-13T08:49:56.047Z,16.20
2018-07-13T08:52:24.171Z,15.80
2018-07-13T08:54:52.319Z,15.07
2018-07-13T08:57:20.217Z,15.43
2018-07-13T08:59:48.359Z,16.53
2018-07-13T09:02:16.498Z,13.97
2018-07-13T09:04:44.680Z,16.27
2018-07-13T09:07:12.759Z,14.30
2018-07-13T09:09:40.898Z,15.20
2018-07-13T09:12:09.051Z,15.10
2018-07-13T09:14:37.190Z,16.03
2018-07-13T09:17:05.330Z,14.33
2018-07-13T09:19:33.483Z,15.07
2018-07-13T09:22:01.622Z,14.43
2018-07-13T09:24:29.758Z,16.53
2018-07-13T09:26:57.908Z,15.60
2018-07-13T09:29:26.043Z,15.90
2018-07-13T09:31:54.192Z,14.00
2018-07-13T09:34:22.329Z,15.53
2018-07-13T09:36:50.450Z,15.60
2018-07-13T09:39:18.593Z,16.47
2018-07-13T09:41:46.727Z,15.13
2018-07-13T09:44:14.868Z,12.93
2018-07-13T09:46:43.046Z,15.90
2018-07-13T09:49:11.139Z,14.07
2018-07-13T09:51:39.278Z,14.60
2018-07-13T09:54:07.490Z,17.23
2018-07-13T09:56:35.572Z,14.20
2018-07-13T09:59:03.713Z,15.33
2018-07-13T10:01:31.602Z,14.17
2018-07-13T10:03:59.763Z,15.30
2018-07-13T10:06:27.882Z,13.77
2018-07-13T10:08:56.091Z,12.37
2018-07-13T10:11:24.230Z,12.93
2018-07-13T10:13:52.395Z,12.87
2018-07-13T10:16:20.526Z,8.83
2018-07-13T10:18:48.430Z,8.53
2018-07-13T10:21:16.566Z,6.73
2018-07-13T10:23:45.697Z,8.23
2018-07-13T10:26:17.892Z,8.93
2018-07-13T10:28:46.019Z,9.47
2018-07-13T10:31:14.642Z,8.60
2018-07-13T10:33:42.774Z,9.67
2018-07-13T10:36:14.271Z,8.97
2018-07-13T10:38:42.399Z,8.10
2018-07-13T10:41:10.734Z,7.57
2018-07-13T10:43:38.867Z,8.90
2018-07-13T10:46:07.012Z,7.70
2018-07-13T10:48:35.150Z,6.90
2018-07-13T10:51:03.330Z,8.40
2018-07-13T10:53:31.769Z,7.70
2018-07-13T10:55:59.895Z,8.73
2018-07-13T10:58:27.894Z,7.40
2018-07-13T11:00:56.009Z,6.30
2018-07-13T11:03:24.131Z,4.60
2018-07-13T11:05:52.258Z,4.77
2018-07-13T11:08:20.385Z,6.07
2018-07-13T11:10:48.532Z,5.70
2018-07-13T11:13:16.647Z,5.83
2018-07-13T11:15:44.783Z,5.20
2018-07-13T11:18:12.709Z,6.97
2018-07-13T11:20:40.843Z,8.07
2018-07-13T11:23:09.058Z,6.83
2018-07-13T11:25:37.152Z,5.30
2018-07-13T11:28:05.437Z,5.63
2018-07-13T11:30:33.576Z,4.80
2018-07-13T11:33:01.700Z,4.80
2018-07-13T11:35:29.834Z,5.37
2018-07-13T11:37:57.977Z,5.70
2018-07-13T11:40:26.126Z,5.77
2018-07-13T11:42:54.276Z,4.83
2018-07-13T11:45:22.410Z,4.97
2018-07-13T11:47:50.542Z,5.70
2018-07-13T11:50:18.668Z,6.00
2018-07-13T11:52:46.819Z,7.97
2018-07-13T11:55:14.958Z,6.60
2018-07-13T11:57:43.095Z,5.47
2018-07-13T12:00:11.233Z,5.03
2018-07-13T12:02:39.379Z,5.63
2018-07-13T12:05:07.511Z,6.13
2018-07-13T12:07:35.723Z,5.70
2018-07-13T12:10:03.792Z,5.53
2018-07-13T12:12:31.951Z,5.20
2018-07-13T12:15:00.062Z,5.03
2018-07-13T12:17:28.273Z,4.43
2018-07-13T12:19:56.352Z,3.97
2018-07-13T12:22:24.450Z,4.97
2018-07-13T12:24:52.574Z,4.50
2018-07-13T12:27:20.718Z,4.80
2018-07-13T12:29:48.860Z,5.87
2018-07-13T12:32:16.968Z,5.17
2018-07-13T12:34:45.189Z,5.13
2018-07-13T12:37:13.348Z,5.90
2018-07-13T12:39:41.541Z,4.77
2018-07-13T12:42:09.621Z,5.13
2018-07-13T12:44:37.735Z,4.70
2018-07-13T12:47:05.916Z,6.50
2018-07-13T12:49:34.119Z,5.07
2018-07-13T12:52:02.256Z,5.73
2018-07-13T12:54:30.391Z,4.73
2018-07-13T12:56:58.278Z,5.00
2018-07-13T12:59:26.474Z,5.27
2018-07-13T13:01:54.586Z,6.00
2018-07-13T13:04:22.859Z,5.40
2018-07-13T13:06:50.986Z,4.90
2018-07-13T13:09:19.118Z,4.87
2018-07-13T13:11:47.287Z,5.23
2018-07-13T13:14:15.421Z,5.60
2018-07-13T13:16:43.550Z,4.53
2018-07-13T13:19:11.514Z,4.87
2018-07-13T13:21:39.438Z,5.40
2018-07-13T13:24:07.536Z,5.37
2018-07-13T13:26:35.665Z,4.60
2018-07-13T13:29:03.800Z,4.97
2018-07-13T13:31:31.701Z,4.73
2018-07-13T13:33:59.831Z,4.37
2018-07-13T13:36:28.086Z,3.43
2018-07-13T13:38:56.230Z,3.93
2018-07-13T13:41:24.399Z,4.00
2018-07-13T13:43:52.514Z,3.53
2018-07-13T13:46:20.630Z,3.50
2018-07-13T13:48:48.772Z,3.23
2018-07-13T13:51:16.889Z,3.37
2018-07-13T13:53:45.082Z,3.37
2018-07-13T13:56:12.927Z,3.50
2018-07-13T13:58:41.058Z,3.00
2018-07-13T14:01:08.946Z,3.50
2018-07-13T14:03:37.386Z,3.27
2018-07-13T14:06:05.520Z,3.40
2018-07-13T14:08:33.658Z,3.50
2018-07-13T14:11:01.552Z,3.23
2018-07-13T14:13:29.682Z,3.67
2018-07-13T14:15:57.825Z,3.90
2018-07-13T14:18:25.949Z,3.80
2018-07-13T14:20:54.082Z,3.50
2018-07-13T14:23:22.211Z,3.55
2018-07-13T14:25:50.338Z,3.10
2018-07-13T14:28:18.518Z,3.50
2018-07-13T14:30:46.595Z,3.23
2018-07-13T14:33:14.562Z,3.10
2018-07-13T14:35:42.740Z,3.63
2018-07-13T14:38:10.855Z,2.87
2018-07-13T14:40:38.988Z,3.33
2018-07-13T14:43:06.875Z,3.27
2018-07-13T14:45:35.011Z,3.47
2018-07-13T14:48:03.136Z,3.77
2018-07-13T14:50:31.254Z,3.37
2018-07-13T14:52:59.379Z,3.37
2018-07-13T14:55:27.522Z,3.30
2018-07-13T14:57:55.673Z,3.37
2018-07-13T15:00:23.798Z,3.37
2018-07-13T15:02:51.939Z,3.20
2018-07-13T15:05:19.994Z,3.20
2018-07-13T15:07:48.139Z,3.10
2018-07-13T15:10:16.443Z,3.30
2018-07-13T15:12:44.211Z,3.00
2018-07-13T15:15:12.376Z,2.87
2018-07-13T15:17:40.516Z,3.80
2018-07-13T15:20:08.591Z,3.60
2018-07-13T15:22:36.734Z,3.50
2018-07-13T15:25:04.910Z,3.60
2018-07-13T15:27:33.051Z,3.10
2018-07-13T15:30:01.177Z,3.50
2018-07-13T15:32:29.384Z,3.70
2018-07-13T15:34:57.521Z,2.80
2018-07-13T15:37:25.699Z,2.90
2018-07-13T15:39:53.778Z,3.30
2018-07-13T15:42:21.915Z,3.43
2018-07-13T15:44:50.053Z,3.23
2018-07-13T15:47:18.207Z,2.93
2018-07-13T15:49:46.391Z,3.30
2018-07-13T15:52:14.529Z,3.30
2018-07-13T15:54:42.671Z,3.40
2018-07-13T15:57:11.027Z,3.10
2018-07-13T15:59:39.158Z,3.00
2018-07-13T16:02:07.337Z,2.90
2018-07-13T16:04:35.483Z,3.00
2018-07-13T16:07:03.614Z,3.10
2018-07-13T16:09:31.750Z,3.33
2018-07-13T16:11:59.964Z,3.27
2018-07-13T16:14:28.093Z,3.30
2018-07-13T16:16:56.227Z,3.30
2018-07-13T16:19:25.168Z,2.77
2018-07-13T16:21:53.319Z,3.07
2018-07-13T16:24:21.447Z,2.87
2018-07-13T16:26:50.004Z,3.00
2018-07-13T16:29:18.125Z,3.00
2018-07-13T16:31:46.254Z,3.00
2018-07-13T16:34:14.390Z,2.23
2018-07-13T16:36:42.513Z,2.60
2018-07-13T16:39:10.650Z,3.07
2018-07-13T16:41:38.783Z,2.70
2018-07-13T16:44:06.908Z,2.60
2018-07-13T16:46:35.056Z,2.67
2018-07-13T16:49:03.203Z,2.73
2018-07-13T16:51:31.138Z,2.80
2018-07-13T16:53:59.300Z,2.80
2018-07-13T16:56:27.505Z,2.53
2018-07-13T16:58:55.614Z,2.67
2018-07-13T17:01:23.730Z,2.63
2018-07-13T17:03:51.894Z,2.60
2018-07-13T17:06:20.070Z,2.87
2018-07-13T17:08:48.281Z,2.60
2018-07-13T17:11:16.348Z,2.33
2018-07-13T17:13:44.492Z,2.60
2018-07-13T17:16:12.605Z,2.53
2018-07-13T17:18:40.779Z,2.30
2018-07-13T17:21:08.675Z,2.50
2018-07-13T17:23:36.815Z,2.33
2018-07-13T17:26:05.453Z,2.40
2018-07-13T17:28:33.556Z,2.60
2018-07-13T17:31:01.691Z,2.67
2018-07-13T17:33:29.852Z,2.70
2018-07-13T17:35:57.986Z,2.63
2018-07-13T17:38:26.354Z,2.70
2018-07-13T17:40:54.481Z,3.10
2018-07-13T17:43:22.712Z,3.10
2018-07-13T17:45:50.670Z,2.80
2018-07-13T17:48:18.806Z,2.70
2018-07-13T17:50:46.954Z,3.30
2018-07-13T17:53:15.091Z,2.80
2018-07-13T17:55:43.214Z,3.00
2018-07-13T17:58:11.354Z,2.50
2018-07-13T18:00:39.714Z,2.87
2018-07-13T18:03:07.813Z,2.90
2018-07-13T18:05:36.161Z,3.00
2018-07-13T18:08:04.300Z,2.60
2018-07-13T18:10:32.519Z,3.27
2018-07-13T18:13:00.574Z,3.00
2018-07-13T18:15:28.563Z,3.07
2018-07-13T18:17:56.711Z,3.37
2018-07-13T18:20:24.837Z,2.83
2018-07-13T18:22:53.223Z,3.00
2018-07-13T18:25:21.299Z,3.00
2018-07-13T18:27:49.468Z,2.83
2018-07-13T18:30:17.603Z,2.93
2018-07-13T18:32:45.738Z,2.97
2018-07-13T18:35:13.944Z,2.90
2018-07-13T18:37:42.086Z,3.13
2018-07-13T18:40:10.215Z,3.47
2018-07-13T18:42:38.409Z,3.67
2018-07-13T18:45:06.613Z,3.30
2018-07-13T18:47:34.766Z,3.10
2018-07-13T18:50:02.891Z,3.20
2018-07-13T18:52:30.898Z,3.10
2018-07-13T18:55:00.068Z,3.30
2018-07-13T18:57:28.202Z,3.47
2018-07-13T18:59:56.335Z,3.40
2018-07-13T19:02:24.468Z,3.57
2018-07-13T19:04:52.369Z,3.20
2018-07-13T19:07:20.530Z,3.30
2018-07-13T19:09:48.669Z,3.43
2018-07-13T19:12:16.773Z,3.67
2018-07-13T19:14:44.924Z,3.23
2018-07-13T19:17:13.039Z,3.43
2018-07-13T19:19:41.170Z,3.50
2018-07-13T19:22:09.085Z,3.53
2018-07-13T19:24:37.209Z,3.93
2018-07-13T19:27:05.326Z,3.80
2018-07-13T19:29:33.459Z,3.73
2018-07-13T19:32:01.599Z,3.60
2018-07-13T19:34:29.772Z,3.90
2018-07-13T19:36:57.880Z,3.67
2018-07-13T19:39:26.023Z,3.73
2018-07-13T19:41:54.141Z,3.70
2018-07-13T19:44:22.290Z,3.87
2018-07-13T19:46:50.185Z,3.47
2018-07-13T19:49:18.318Z,3.70
2018-07-13T19:51:46.464Z,3.67
2018-07-13T19:54:14.608Z,3.93
2018-07-13T19:56:42.733Z,4.10
2018-07-13T19:59:10.972Z,3.97
2018-07-13T20:01:39.093Z,3.40
2018-07-13T20:04:07.254Z,3.40
2018-07-13T20:06:35.390Z,4.30
2018-07-13T20:09:04.627Z,4.43
2018-07-13T20:11:32.798Z,4.10
2018-07-13T20:14:00.958Z,3.70
2018-07-13T20:16:29.113Z,4.20
2018-07-13T20:18:57.255Z,4.60
2018-07-13T20:21:25.390Z,5.40
2018-07-13T20:23:53.537Z,4.57
2018-07-13T20:26:21.726Z,5.23
2018-07-13T20:28:49.811Z,5.03
2018-07-13T20:31:17.958Z,5.60
2018-07-13T20:33:46.264Z,5.63
2018-07-13T20:36:14.411Z,5.87
2018-07-13T20:38:42.710Z,6.10
2018-07-13T20:41:10.850Z,6.50
2018-07-13T20:43:38.981Z,6.60
2018-07-13T20:46:06.945Z,7.23
2018-07-13T20:48:35.063Z,7.53
2018-07-13T20:51:03.186Z,6.37
2018-07-13T20:53:31.142Z,6.10
2018-07-13T20:55:59.275Z,5.37
2018-07-13T20:58:27.403Z,5.70
2018-07-13T21:00:55.546Z,6.03
2018-07-13T21:03:23.682Z,5.43
2018-07-13T21:05:51.834Z,5.60
2018-07-13T21:08:19.958Z,5.40
2018-07-13T21:10:48.109Z,5.40
2018-07-13T21:13:16.248Z,5.40
2018-07-13T21:15:44.210Z,5.53
2018-07-13T21:18:12.125Z,5.50
2018-07-13T21:20:40.266Z,5.40
2018-07-13T21:23:08.392Z,5.43
2018-07-13T21:25:36.543Z,5.07
2018-07-13T21:28:04.927Z,5.50
2018-07-13T21:30:33.046Z,5.20
2018-07-13T21:33:00.950Z,5.13
2018-07-13T21:35:29.095Z,7.90
2018-07-13T21:37:57.356Z,5.10
2018-07-13T21:40:25.494Z,5.03
2018-07-13T21:42:53.638Z,5.17
2018-07-13T21:45:21.814Z,5.57
2018-07-13T21:47:49.745Z,6.20
2018-07-13T21:50:17.651Z,6.23
2018-07-13T21:52:45.791Z,6.00
2018-07-13T21:55:13.741Z,7.93
2018-07-13T21:57:41.894Z,6.10
2018-07-13T22:00:10.036Z,5.50
2018-07-13T22:02:38.167Z,5.33
2018-07-13T22:05:06.340Z,7.50
2018-07-13T22:07:34.526Z,4.67
2018-07-13T22:10:02.420Z,4.90
2018-07-13T22:12:30.560Z,5.10
2018-07-13T22:14:58.679Z,5.00
2018-07-13T22:17:26.814Z,5.43
2018-07-13T22:19:54.758Z,5.47
2018-07-13T22:22:22.919Z,4.93
2018-07-13T22:24:51.128Z,5.30
2018-07-13T22:27:19.026Z,5.10
2018-07-13T22:29:47.150Z,5.47
2018-07-13T22:32:15.280Z,5.30
2018-07-13T22:34:43.424Z,5.17
2018-07-13T22:37:11.554Z,5.80
2018-07-13T22:39:39.679Z,5.83
2018-07-13T22:42:07.821Z,5.37
2018-07-13T22:44:35.966Z,5.60
2018-07-13T22:47:04.230Z,5.40
2018-07-13T22:49:32.447Z,5.60
2018-07-13T22:52:00.613Z,5.47
2018-07-13T22:54:28.756Z,5.87
2018-07-13T22:56:56.878Z,6.20
2018-07-13T22:59:25.015Z,5.63
2018-07-13T23:01:53.173Z,6.27
2018-07-13T23:04:21.310Z,6.00
2018-07-13T23:06:49.451Z,5.70
2018-07-13T23:09:17.578Z,5.63
2018-07-13T23:11:45.702Z,5.63
2018-07-13T23:14:13.850Z,6.47
2018-07-13T23:16:41.986Z,5.50
2018-07-13T23:19:10.131Z,5.77
2018-07-13T23:21:38.118Z,5.50
2018-07-13T23:24:06.267Z,5.57
2018-07-13T23:26:34.379Z,5.47
2018-07-13T23:29:02.513Z,5.50
2018-07-13T23:31:30.402Z,5.87
2018-07-13T23:33:58.555Z,5.90
2018-07-13T23:36:26.750Z,5.77
2018-07-13T23:38:54.876Z,6.27
2018-07-13T23:41:23.007Z,5.17
2018-07-13T23:43:51.346Z,5.70
2018-07-13T23:46:19.243Z,5.70
2018-07-13T23:48:47.387Z,5.50
2018-07-13T23:51:15.308Z,5.67
2018-07-13T23:53:43.459Z,5.43
2018-07-13T23:56:11.587Z,5.63
2018-07-13T23:58:39.768Z,5.83
